Time;durP1;ratioP1;P1;durP2;ratioP2;P2;SDS_P1;SDS_P2;PMS_P1;PMS_P2;Temp;Humidity;BMP_temperature;BMP_pressure;BME280_temperature;BME280_humidity;BME280_pressure;Samples;Min_cycle;Max_cycle;Signal;HPM_P1;HPM_P2
2023/06/21 00:00:35;;;;;;;;;;;;;;;;;;5057921;28;19970;-60
2023/06/21 00:03:04;;;;;;;;;;;;;;;;;;5071246;28;19920;-60
2023/06/21 00:05:30;;;;;;;;;;;;;;;;;;5067126;28;19939;-60
2023/06/21 00:07:56;;;;;;;;;;;;;;;;;;5065545;28;19997;-60
2023/06/21 00:10:23;;;;;;;;;;;;;;;;;;5067898;28;19917;-60
2023/06/21 00:12:49;;;;;;;;;;;;;;;;;;5070271;28;20347;-60
2023/06/21 00:15:15;;;;;;;;;;;;;;;;;;5071198;28;20003;-60
2023/06/21 00:17:41;;;;;;;;;;;;;;;;;;5072658;28;19921;-60
2023/06/21 00:20:09;;;;;;;;;;;;;;;;;;5053858;28;19997;-60
2023/06/21 00:22:35;;;;;;;;;;;;;;;;;;5065142;28;19913;-60
2023/06/21 00:25:01;;;;;;;;;;;;;;;;;;5072330;28;20352;-60
2023/06/21 00:27:27;;;;;;;;;;;;;;;;;;5068575;28;19963;-60
2023/06/21 00:29:53;;;;;;;;;;;;;;;;;;5071012;28;19966;-60
2023/06/21 00:32:19;;;;;;;;;;;;;;;;;;5072545;28;20045;-60
2023/06/21 00:34:47;;;;;;;;;;;;;;;;;;5071404;28;19960;-60
2023/06/21 00:37:12;;;;;;;;;;;;;;;;;;5071792;28;19912;-60
2023/06/21 00:39:38;;;;;;;;;;;;;;;;;;5061550;28;20287;-60
2023/06/21 00:42:04;;;;;;;;;;;;;;;;;;5063850;28;20376;-60
2023/06/21 00:44:30;;;;;;;;;;;;;;;;;;5052034;28;20032;-60
2023/06/21 00:46:56;;;;;;;;;;;;;;;;;;5052173;28;19917;-60
2023/06/21 00:49:23;;;;;;;;;;;;;;;;;;5064867;28;20431;-60
2023/06/21 00:51:49;;;;;;;;;;;;;;;;;;5071643;28;19912;-60
2023/06/21 00:54:18;;;;;;;;;;;;;;;;;;5069927;28;19963;-60
2023/06/21 00:56:44;;;;;;;;;;;;;;;;;;5067955;28;20018;-60
2023/06/21 00:59:10;;;;;;;;;;;;;;;;;;5071434;28;19960;-59
2023/06/21 01:01:39;;;;;;;;;;;;;;;;;;5070501;28;19913;-60
2023/06/21 01:04:08;;;;;;;;;;;;;;;;;;5072275;28;20337;-60
2023/06/21 01:06:34;;;;;;;;;;;;;;;;;;5058335;28;19940;-60
2023/06/21 01:09:01;;;;;;;;;;;;;;;;;;5065723;28;20328;-60
2023/06/21 01:11:27;;;;;;;;;;;;;;;;;;5064710;28;19923;-60
2023/06/21 01:13:53;;;;;;;;;;;;;;;;;;5071311;28;20301;-60
2023/06/21 01:16:19;;;;;;;;;;;;;;;;;;5070570;28;19926;-60
2023/06/21 01:18:45;;;;;;;;;;;;;;;;;;5070474;28;19916;-60
2023/06/21 01:21:16;;;;;;;;;;;;;;;;;;5051465;28;19952;-60
2023/06/21 01:23:41;;;;;;;;;;;;;;;;;;5064664;28;19913;-59
2023/06/21 01:26:07;;;;;;;;;;;;;;;;;;5070588;28;19956;-60
2023/06/21 01:28:33;;;;;;;;;;;;;;;;;;5073766;28;20003;-60
2023/06/21 01:30:59;;;;;;;;;;;;;;;;;;5074679;28;20404;-59
2023/06/21 01:33:25;;;;;;;;;;;;;;;;;;5074656;28;19999;-60
2023/06/21 01:35:52;;;;;;;;;;;;;;;;;;5075584;28;19915;-60
2023/06/21 01:38:18;;;;;;;;;;;;;;;;;;5074288;28;19913;-60
2023/06/21 01:40:44;;;;;;;;;;;;;;;;;;5072878;28;20460;-60
2023/06/21 01:43:10;;;;;;;;;;;;;;;;;;5068973;28;20011;-60
2023/06/21 01:45:36;;;;;;;;;;;;;;;;;;5066837;28;19916;-60
2023/06/21 01:48:02;;;;;;;;;;;;;;;;;;5069599;28;19974;-60
2023/06/21 01:50:28;;;;;;;;;;;;;;;;;;5071768;28;20623;-60
2023/06/21 01:52:54;;;;;;;;;;;;;;;;;;5058333;28;19912;-60
2023/06/21 01:55:20;;;;;;;;;;;;;;;;;;5067504;28;19969;-60
2023/06/21 01:57:46;;;;;;;;;;;;;;;;;;5068437;28;19962;-61
2023/06/21 02:00:16;;;;;;;;;;;;;;;;;;5073570;28;19944;-60
2023/06/21 02:02:42;;;;;;;;;;;;;;;;;;5057268;28;19913;-60
2023/06/21 02:05:08;;;;;;;;;;;;;;;;;;5074445;28;19919;-61
2023/06/21 02:07:34;;;;;;;;;;;;;;;;;;5069929;28;19975;-61
2023/06/21 02:10:00;;;;;;;;;;;;;;;;;;5074449;28;20035;-61
2023/06/21 02:12:26;;;;;;;;;;;;;;;;;;5074784;28;19999;-61
2023/06/21 02:14:52;;;;;;;;;;;;;;;;;;5074550;28;19916;-60
2023/06/21 02:17:18;;;;;;;;;;;;;;;;;;5061586;28;20028;-61
2023/06/21 02:19:44;;;;;;;;;;;;;;;;;;5067196;28;19916;-62
2023/06/21 02:22:11;;;;;;;;;;;;;;;;;;5068750;28;20375;-62
2023/06/21 02:24:37;;;;;;;;;;;;;;;;;;5073955;28;19916;-63
2023/06/21 02:27:03;;;;;;;;;;;;;;;;;;5073652;28;19971;-62
2023/06/21 02:29:29;;;;;;;;;;;;;;;;;;5072821;28;19948;-62
2023/06/21 02:31:55;;;;;;;;;;;;;;;;;;5074480;28;20046;-63
2023/06/21 02:34:21;;;;;;;;;;;;;;;;;;5074713;28;19915;-62
2023/06/21 02:36:53;;;;;;;;;;;;;;;;;;5068204;28;19917;-62
2023/06/21 02:39:20;;;;;;;;;;;;;;;;;;5058327;28;20022;-63
2023/06/21 02:41:47;;;;;;;;;;;;;;;;;;5069226;28;19916;-64
2023/06/21 02:44:13;;;;;;;;;;;;;;;;;;5074610;28;19912;-63
2023/06/21 02:46:39;;;;;;;;;;;;;;;;;;5073876;28;20371;-62
2023/06/21 02:49:04;;;;;;;;;;;;;;;;;;5074351;28;20418;-62
2023/06/21 02:51:30;;;;;;;;;;;;;;;;;;5069065;28;19948;-62
2023/06/21 02:53:56;;;;;;;;;;;;;;;;;;5074524;28;19926;-62
2023/06/21 02:56:22;;;;;;;;;;;;;;;;;;5072540;28;20276;-62
2023/06/21 02:58:48;;;;;;;;;;;;;;;;;;5067473;28;19990;-62
2023/06/21 03:01:15;;;;;;;;;;;;;;;;;;5073802;28;20357;-62
2023/06/21 03:03:44;;;;;;;;;;;;;;;;;;5074365;28;20398;-62
2023/06/21 03:06:11;;;;;;;;;;;;;;;;;;5063238;28;19939;-62
2023/06/21 03:08:38;;;;;;;;;;;;;;;;;;5073971;28;19916;-62
2023/06/21 03:11:08;;;;;;;;;;;;;;;;;;5072978;28;19924;-62
2023/06/21 03:13:34;;;;;;;;;;;;;;;;;;5074138;28;20487;-62
2023/06/21 03:16:02;;;;;;;;;;;;;;;;;;5062967;28;20011;-61
2023/06/21 03:18:27;;;;;;;;;;;;;;;;;;5060824;28;19908;-62
2023/06/21 03:20:53;;;;;;;;;;;;;;;;;;5073158;28;19948;-62
2023/06/21 03:23:19;;;;;;;;;;;;;;;;;;5062467;28;19916;-62
2023/06/21 03:25:45;;;;;;;;;;;;;;;;;;5053369;28;19915;-61
2023/06/21 03:28:11;;;;;;;;;;;;;;;;;;5069824;28;19912;-61
2023/06/21 03:30:37;;;;;;;;;;;;;;;;;;5067894;28;19967;-61
2023/06/21 03:33:03;;;;;;;;;;;;;;;;;;5070836;28;20459;-61
2023/06/21 03:35:29;;;;;;;;;;;;;;;;;;5072598;28;19998;-61
2023/06/21 03:37:55;;;;;;;;;;;;;;;;;;5068277;28;20387;-61
2023/06/21 03:40:21;;;;;;;;;;;;;;;;;;5070558;28;19912;-61
2023/06/21 03:42:47;;;;;;;;;;;;;;;;;;5063734;28;19913;-61
2023/06/21 03:45:13;;;;;;;;;;;;;;;;;;5052744;28;19913;-61
2023/06/21 03:47:39;;;;;;;;;;;;;;;;;;5054129;28;20007;-61
2023/06/21 03:50:05;;;;;;;;;;;;;;;;;;5071449;28;19919;-61
2023/06/21 03:52:31;;;;;;;;;;;;;;;;;;5070850;28;19924;-61
2023/06/21 03:54:57;;;;;;;;;;;;;;;;;;5071172;28;19966;-61
2023/06/21 03:57:23;;;;;;;;;;;;;;;;;;5071339;28;20023;-61
2023/06/21 03:59:49;;;;;;;;;;;;;;;;;;5071029;28;19913;-61
2023/06/21 04:02:15;;;;;;;;;;;;;;;;;;5060253;28;19947;-62
2023/06/21 04:04:41;;;;;;;;;;;;;;;;;;5058526;28;19931;-62
2023/06/21 04:07:07;;;;;;;;;;;;;;;;;;5066265;28;19962;-61
2023/06/21 04:09:33;;;;;;;;;;;;;;;;;;5050328;28;19951;-62
2023/06/21 04:11:59;;;;;;;;;;;;;;;;;;5068638;28;20002;-61
2023/06/21 04:14:25;;;;;;;;;;;;;;;;;;5068651;28;20048;-61
2023/06/21 04:16:50;;;;;;;;;;;;;;;;;;5066889;28;19924;-61
2023/06/21 04:19:16;;;;;;;;;;;;;;;;;;5060218;28;19913;-61
2023/06/21 04:21:43;;;;;;;;;;;;;;;;;;5066336;28;19952;-61
2023/06/21 04:24:09;;;;;;;;;;;;;;;;;;5059887;28;20306;-61
2023/06/21 04:26:35;;;;;;;;;;;;;;;;;;5066722;28;19963;-61
2023/06/21 04:29:01;;;;;;;;;;;;;;;;;;5062502;28;19921;-61
2023/06/21 04:31:26;;;;;;;;;;;;;;;;;;5068563;28;19920;-61
2023/06/21 04:33:53;;;;;;;;;;;;;;;;;;5059445;28;20356;-61
2023/06/21 04:36:19;;;;;;;;;;;;;;;;;;5056730;28;19920;-61
2023/06/21 04:38:49;;;;;;;;;;;;;;;;;;5066980;28;20381;-61
2023/06/21 04:41:15;;;;;;;;;;;;;;;;;;5065228;28;20364;-61
2023/06/21 04:43:42;;;;;;;;;;;;;;;;;;5063345;28;19921;-61
2023/06/21 04:46:07;;;;;;;;;;;;;;;;;;5068788;28;19916;-61
2023/06/21 04:48:33;;;;;;;;;;;;;;;;;;5061528;28;19944;-61
2023/06/21 04:50:59;;;;;;;;;;;;;;;;;;5062620;28;20341;-61
2023/06/21 04:53:29;;;;;;;;;;;;;;;;;;5062328;28;20010;-61
2023/06/21 04:55:55;;;;;;;;;;;;;;;;;;5065508;28;20383;-61
2023/06/21 04:58:21;;;;;;;;;;;;;;;;;;5057045;28;19946;-61
2023/06/21 05:00:47;;;;;;;;;;;;;;;;;;5063949;28;19973;-61
2023/06/21 05:03:13;;;;;;;;;;;;;;;;;;5066203;28;19957;-61
2023/06/21 05:05:39;;;;;;;;;;;;;;;;;;5068346;28;19917;-60
2023/06/21 05:08:05;;;;;;;;;;;;;;;;;;5068470;28;19924;-61
2023/06/21 05:10:30;;;;;;;;;;;;;;;;;;5041403;28;20007;-61
2023/06/21 05:12:56;;;;;;;;;;;;;;;;;;5064030;28;19927;-61
2023/06/21 05:15:22;;;;;;;;;;;;;;;;;;5068707;28;19951;-65
2023/06/21 05:17:48;;;;;;;;;;;;;;;;;;5059256;28;19930;-69
2023/06/21 05:20:14;;;;;;;;;;;;;;;;;;5061911;28;19917;-69
2023/06/21 05:22:42;;;;;;;;;;;;;;;;;;5065623;28;19947;-69
2023/06/21 05:25:08;;;;;;;;;;;;;;;;;;5055845;28;19995;-69
2023/06/21 05:27:34;;;;;;;;;;;;;;;;;;5055798;28;20019;-69
2023/06/21 05:30:00;;;;;;;;;;;;;;;;;;5069735;28;20004;-69
2023/06/21 05:32:26;;;;;;;;;;;;;;;;;;5069756;28;19917;-69
2023/06/21 05:34:52;;;;;;;;;;;;;;;;;;5058682;28;19946;-69
2023/06/21 05:37:17;;;;;;;;;;;;;;;;;;5060148;28;20452;-68
2023/06/21 05:39:44;;;;;;;;;;;;;;;;;;5064524;28;20331;-68
2023/06/21 05:42:10;;;;;;;;;;;;;;;;;;5061147;28;19920;-68
2023/06/21 05:44:36;;;;;;;;;;;;;;;;;;5067456;28;20462;-69
2023/06/21 05:47:02;;;;;;;;;;;;;;;;;;5065434;28;19971;-69
2023/06/21 05:49:28;;;;;;;;;;;;;;;;;;5068368;28;20015;-69
2023/06/21 05:51:54;;;;;;;;;;;;;;;;;;5069491;28;20292;-68
2023/06/21 05:54:19;;;;;;;;;;;;;;;;;;5065153;28;19952;-69
2023/06/21 05:56:45;;;;;;;;;;;;;;;;;;5061910;28;19919;-69
2023/06/21 05:59:11;;;;;;;;;;;;;;;;;;5063794;28;19916;-69
2023/06/21 06:01:37;;;;;;;;;;;;;;;;;;5062645;28;19959;-69
2023/06/21 06:04:03;;;;;;;;;;;;;;;;;;5067350;28;20433;-69
2023/06/21 06:06:29;;;;;;;;;;;;;;;;;;5064092;28;22223;-69
2023/06/21 06:08:55;;;;;;;;;;;;;;;;;;5062578;28;19920;-68
2023/06/21 06:11:21;;;;;;;;;;;;;;;;;;5063587;28;19961;-68
2023/06/21 06:13:47;;;;;;;;;;;;;;;;;;5062508;28;19973;-69
2023/06/21 06:16:13;;;;;;;;;;;;;;;;;;5071006;28;19992;-68
2023/06/21 06:18:40;;;;;;;;;;;;;;;;;;5068340;28;19913;-68
2023/06/21 06:21:05;;;;;;;;;;;;;;;;;;5055278;28;19913;-68
2023/06/21 06:23:32;;;;;;;;;;;;;;;;;;5055779;28;19917;-68
2023/06/21 06:25:58;;;;;;;;;;;;;;;;;;5062491;28;20359;-68
2023/06/21 06:28:24;;;;;;;;;;;;;;;;;;5074165;28;19964;-68
2023/06/21 06:30:50;;;;;;;;;;;;;;;;;;5067547;28;19947;-68
2023/06/21 06:33:16;;;;;;;;;;;;;;;;;;5054653;28;19962;-68
2023/06/21 06:35:42;;;;;;;;;;;;;;;;;;5059394;28;19913;-69
2023/06/21 06:38:08;;;;;;;;;;;;;;;;;;5063067;28;19952;-68
2023/06/21 06:40:34;;;;;;;;;;;;;;;;;;5065308;28;19912;-69
2023/06/21 06:43:00;;;;;;;;;;;;;;;;;;5060400;28;20265;-69
2023/06/21 06:45:25;;;;;;;;;;;;;;;;;;5062062;28;19923;-69
2023/06/21 06:47:51;;;;;;;;;;;;;;;;;;5069589;28;19972;-70
2023/06/21 06:50:17;;;;;;;;;;;;;;;;;;5070895;28;19935;-68
2023/06/21 06:52:44;;;;;;;;;;;;;;;;;;5059552;28;19967;-68
2023/06/21 06:55:10;;;;;;;;;;;;;;;;;;5058256;28;19927;-68
2023/06/21 06:57:36;;;;;;;;;;;;;;;;;;5061648;28;19959;-68
2023/06/21 07:00:03;;;;;;;;;;;;;;;;;;5057605;28;20013;-68
2023/06/21 07:02:29;;;;;;;;;;;;;;;;;;5067451;28;20368;-68
2023/06/21 07:04:55;;;;;;;;;;;;;;;;;;5073191;28;19943;-68
2023/06/21 07:07:21;;;;;;;;;;;;;;;;;;5067208;28;19916;-68
2023/06/21 07:09:47;;;;;;;;;;;;;;;;;;5066278;28;19912;-68
2023/06/21 07:12:13;;;;;;;;;;;;;;;;;;5073238;28;19920;-68
2023/06/21 07:14:39;;;;;;;;;;;;;;;;;;5072483;28;20365;-68
2023/06/21 07:17:05;;;;;;;;;;;;;;;;;;5069920;28;20019;-68
2023/06/21 07:19:31;;;;;;;;;;;;;;;;;;5084322;28;20003;-68
2023/06/21 07:21:57;;;;;;;;;;;;;;;;;;5072446;28;19967;-68
2023/06/21 07:24:23;;;;;;;;;;;;;;;;;;5073006;28;19995;-68
2023/06/21 07:26:49;;;;;;;;;;;;;;;;;;5068248;28;19924;-68
2023/06/21 07:29:15;;;;;;;;;;;;;;;;;;5070563;28;19947;-69
2023/06/21 07:31:41;;;;;;;;;;;;;;;;;;5070038;28;20247;-68
2023/06/21 07:34:07;;;;;;;;;;;;;;;;;;5069877;28;20419;-68
2023/06/21 07:36:33;;;;;;;;;;;;;;;;;;5071630;28;20651;-68
2023/06/21 07:38:59;;;;;;;;;;;;;;;;;;5067961;28;20394;-68
2023/06/21 07:41:25;;;;;;;;;;;;;;;;;;5069929;28;19950;-68
2023/06/21 07:43:51;;;;;;;;;;;;;;;;;;5069705;28;19963;-68
2023/06/21 07:46:17;;;;;;;;;;;;;;;;;;5069090;28;19948;-68
2023/06/21 07:48:43;;;;;;;;;;;;;;;;;;5076324;28;21365;-67
2023/06/21 07:51:09;;;;;;;;;;;;;;;;;;5076134;28;19926;-68
2023/06/21 07:53:34;;;;;;;;;;;;;;;;;;5063233;28;19952;-68
2023/06/21 07:56:00;;;;;;;;;;;;;;;;;;5041690;28;19943;-68
2023/06/21 07:58:26;;;;;;;;;;;;;;;;;;5061407;28;19967;-68
2023/06/21 08:00:52;;;;;;;;;;;;;;;;;;5050054;28;20003;-68
2023/06/21 08:03:18;;;;;;;;;;;;;;;;;;5070203;28;20308;-68
2023/06/21 08:05:44;;;;;;;;;;;;;;;;;;5070057;28;19917;-68
2023/06/21 08:08:10;;;;;;;;;;;;;;;;;;5068116;28;20003;-68
2023/06/21 08:10:36;;;;;;;;;;;;;;;;;;5071958;28;19943;-68
2023/06/21 08:13:02;;;;;;;;;;;;;;;;;;5064568;28;19965;-68
2023/06/21 08:15:28;;;;;;;;;;;;;;;;;;5053931;28;19992;-68
2023/06/21 08:17:54;;;;;;;;;;;;;;;;;;5067777;28;19964;-62
2023/06/21 08:20:19;;;;;;;;;;;;;;;;;;5063058;28;19919;-67
2023/06/21 08:22:45;;;;;;;;;;;;;;;;;;5072020;28;19912;-67
2023/06/21 08:25:11;;;;;;;;;;;;;;;;;;5068956;28;20437;-66
2023/06/21 08:27:37;;;;;;;;;;;;;;;;;;5052242;28;19932;-66
2023/06/21 08:30:03;;;;;;;;;;;;;;;;;;5071362;28;19921;-65
2023/06/21 08:32:29;;;;;;;;;;;;;;;;;;5073064;28;19920;-67
2023/06/21 08:34:55;;;;;;;;;;;;;;;;;;5052754;28;20006;-66
2023/06/21 08:37:24;;;;;;;;;;;;;;;;;;5071625;28;19978;-66
2023/06/21 08:39:52;;;;;;;;;;;;;;;;;;5067143;28;19967;-67
2023/06/21 08:42:18;;;;;;;;;;;;;;;;;;5052642;28;20023;-66
2023/06/21 08:44:45;;;;;;;;;;;;;;;;;;5067020;28;20006;-67
2023/06/21 08:47:10;;;;;;;;;;;;;;;;;;5066892;28;19990;-66
2023/06/21 08:49:36;;;;;;;;;;;;;;;;;;5067954;28;19916;-65
2023/06/21 08:52:02;;;;;;;;;;;;;;;;;;5049244;28;19935;-65
2023/06/21 08:54:29;;;;;;;;;;;;;;;;;;5073445;28;19963;-66
2023/06/21 08:56:55;;;;;;;;;;;;;;;;;;5072561;28;19982;-66
2023/06/21 08:59:21;;;;;;;;;;;;;;;;;;5068912;28;19959;-66
2023/06/21 09:01:47;;;;;;;;;;;;;;;;;;5067519;28;19948;-66
2023/06/21 09:04:12;;;;;;;;;;;;;;;;;;5071240;28;19972;-65
2023/06/21 09:06:38;;;;;;;;;;;;;;;;;;5067828;28;20457;-65
2023/06/21 09:09:04;;;;;;;;;;;;;;;;;;5069993;28;19916;-66
2023/06/21 09:11:30;;;;;;;;;;;;;;;;;;5069726;28;20356;-65
2023/06/21 09:13:56;;;;;;;;;;;;;;;;;;5050043;28;20392;-65
2023/06/21 09:16:22;;;;;;;;;;;;;;;;;;5066632;28;19929;-65
2023/06/21 09:18:48;;;;;;;;;;;;;;;;;;5069324;28;20000;-65
2023/06/21 09:21:14;;;;;;;;;;;;;;;;;;5064662;28;19913;-65
2023/06/21 09:23:40;;;;;;;;;;;;;;;;;;5061783;28;19951;-65
2023/06/21 09:26:06;;;;;;;;;;;;;;;;;;5067116;28;19926;-65
2023/06/21 09:28:32;;;;;;;;;;;;;;;;;;5066712;28;19964;-65
2023/06/21 09:30:57;;;;;;;;;;;;;;;;;;5070537;28;20255;-65
2023/06/21 09:33:23;;;;;;;;;;;;;;;;;;5048203;28;20018;-65
2023/06/21 09:35:49;;;;;;;;;;;;;;;;;;5069469;28;19988;-65
2023/06/21 09:38:15;;;;;;;;;;;;;;;;;;5056655;28;20023;-66
2023/06/21 09:40:42;;;;;;;;;;;;;;;;;;5069293;28;19917;-65
2023/06/21 09:43:08;;;;;;;;;;;;;;;;;;5042484;28;19913;-64
2023/06/21 09:45:34;;;;;;;;;;;;;;;;;;5068580;28;19916;-66
2023/06/21 09:47:59;;;;;;;;;;;;;;;;;;5070939;28;20003;-64
2023/06/21 09:50:25;;;;;;;;;;;;;;;;;;5073740;28;19912;-65
2023/06/21 09:52:51;;;;;;;;;;;;;;;;;;5074381;28;19996;-65
2023/06/21 09:55:17;;;;;;;;;;;;;;;;;;5056116;28;19999;-66
2023/06/21 09:57:43;;;;;;;;;;;;;;;;;;5074569;28;19986;-66
2023/06/21 10:00:10;;;;;;;;;;;;;;;;;;5074217;28;19915;-66
2023/06/21 10:02:36;;;;;;;;;;;;;;;;;;5074636;28;19909;-66
2023/06/21 10:05:02;;;;;;;;;;;;;;;;;;5075168;28;19908;-66
2023/06/21 10:07:28;;;;;;;;;;;;;;;;;;5070012;28;19913;-66
2023/06/21 10:09:54;;;;;;;;;;;;;;;;;;5054314;28;19909;-66
2023/06/21 10:12:20;;;;;;;;;;;;;;;;;;5066482;28;19999;-65
2023/06/21 10:14:46;;;;;;;;;;;;;;;;;;5069638;28;19939;-66
2023/06/21 10:17:12;;;;;;;;;;;;;;;;;;5071434;28;19971;-66
2023/06/21 10:19:38;;;;;;;;;;;;;;;;;;5069715;28;20261;-65
2023/06/21 10:22:07;;;;;;;;;;;;;;;;;;5054408;28;19908;-66
2023/06/21 10:24:32;;;;;;;;;;;;;;;;;;5068095;28;19948;-67
2023/06/21 10:26:58;;;;;;;;;;;;;;;;;;5072694;28;19952;-66
2023/06/21 10:29:24;;;;;;;;;;;;;;;;;;5069161;28;20003;-65
2023/06/21 10:31:50;;;;;;;;;;;;;;;;;;5072560;28;19909;-65
2023/06/21 10:34:16;;;;;;;;;;;;;;;;;;5054753;28;19951;-66
2023/06/21 10:36:42;;;;;;;;;;;;;;;;;;5072406;28;20008;-66
2023/06/21 10:39:08;;;;;;;;;;;;;;;;;;5072600;28;19908;-66
2023/06/21 10:41:34;;;;;;;;;;;;;;;;;;5071328;28;19967;-66
2023/06/21 10:44:00;;;;;;;;;;;;;;;;;;5072578;28;19951;-66
2023/06/21 10:46:26;;;;;;;;;;;;;;;;;;5072399;28;20380;-66
2023/06/21 10:48:53;;;;;;;;;;;;;;;;;;5073402;28;19916;-66
2023/06/21 10:51:19;;;;;;;;;;;;;;;;;;5072718;28;20565;-65
2023/06/21 10:53:45;;;;;;;;;;;;;;;;;;5072347;28;19999;-65
2023/06/21 10:56:16;;;;;;;;;;;;;;;;;;5054442;28;20007;-66
2023/06/21 10:58:42;;;;;;;;;;;;;;;;;;5065332;28;19915;-67
2023/06/21 11:01:11;;;;;;;;;;;;;;;;;;5061018;28;19932;-63
2023/06/21 11:03:37;;;;;;;;;;;;;;;;;;5067869;28;19947;-62
2023/06/21 11:06:03;;;;;;;;;;;;;;;;;;5070690;28;19958;-62
2023/06/21 11:08:30;;;;;;;;;;;;;;;;;;5071829;28;20350;-62
2023/06/21 11:10:56;;;;;;;;;;;;;;;;;;5071276;28;20008;-62
2023/06/21 11:13:22;;;;;;;;;;;;;;;;;;5068335;28;20353;-62
2023/06/21 11:15:48;;;;;;;;;;;;;;;;;;5052231;28;19924;-62
2023/06/21 11:18:18;;;;;;;;;;;;;;;;;;5070699;28;19995;-62
2023/06/21 11:20:44;;;;;;;;;;;;;;;;;;5067723;28;20383;-62
2023/06/21 11:23:10;;;;;;;;;;;;;;;;;;5065178;28;19955;-62
2023/06/21 11:25:36;;;;;;;;;;;;;;;;;;5066392;28;19948;-62
2023/06/21 11:28:02;;;;;;;;;;;;;;;;;;5060489;28;20392;-62
2023/06/21 11:30:27;;;;;;;;;;;;;;;;;;5068703;28;20562;-62
2023/06/21 11:32:57;;;;;;;;;;;;;;;;;;5055038;28;20003;-62
2023/06/21 11:35:22;;;;;;;;;;;;;;;;;;5066353;28;19924;-62
2023/06/21 11:37:50;;;;;;;;;;;;;;;;;;5060773;28;19951;-62
2023/06/21 11:40:18;;;;;;;;;;;;;;;;;;5060970;28;20365;-62
2023/06/21 11:42:44;;;;;;;;;;;;;;;;;;5071680;28;20042;-62
2023/06/21 11:45:09;;;;;;;;;;;;;;;;;;5070567;28;20003;-62
2023/06/21 11:47:35;;;;;;;;;;;;;;;;;;5070942;28;19921;-62
2023/06/21 11:50:03;;;;;;;;;;;;;;;;;;5060782;28;19927;-62
2023/06/21 11:52:29;;;;;;;;;;;;;;;;;;5069298;28;19916;-63
2023/06/21 11:54:55;;;;;;;;;;;;;;;;;;5067623;28;19939;-62
2023/06/21 11:57:21;;;;;;;;;;;;;;;;;;5059876;28;19941;-62
2023/06/21 11:59:47;;;;;;;;;;;;;;;;;;5063723;28;19955;-62
2023/06/21 12:02:13;;;;;;;;;;;;;;;;;;5056688;28;20330;-62
2023/06/21 12:04:39;;;;;;;;;;;;;;;;;;5062363;28;19923;-62
2023/06/21 12:07:05;;;;;;;;;;;;;;;;;;5071801;28;19925;-63
2023/06/21 12:09:31;;;;;;;;;;;;;;;;;;5069780;28;20391;-62
2023/06/21 12:11:57;;;;;;;;;;;;;;;;;;5064462;28;19947;-62
2023/06/21 12:14:23;;;;;;;;;;;;;;;;;;5067192;28;19934;-62
2023/06/21 12:16:49;;;;;;;;;;;;;;;;;;5067538;28;19960;-62
2023/06/21 12:19:15;;;;;;;;;;;;;;;;;;5064268;28;19953;-62
2023/06/21 12:21:42;;;;;;;;;;;;;;;;;;5063899;28;21405;-63
2023/06/21 12:24:08;;;;;;;;;;;;;;;;;;5061712;28;19922;-62
2023/06/21 12:26:34;;;;;;;;;;;;;;;;;;5066071;28;20007;-63
2023/06/21 12:29:00;;;;;;;;;;;;;;;;;;5064148;28;20061;-63
2023/06/21 12:31:27;;;;;;;;;;;;;;;;;;5084847;28;19989;-62
2023/06/21 12:33:52;;;;;;;;;;;;;;;;;;5071938;28;19927;-63
2023/06/21 12:36:20;;;;;;;;;;;;;;;;;;5071832;28;19908;-62
2023/06/21 12:38:46;;;;;;;;;;;;;;;;;;5061616;28;19923;-62
2023/06/21 12:41:11;;;;;;;;;;;;;;;;;;5070729;28;20387;-60
2023/06/21 12:43:37;;;;;;;;;;;;;;;;;;5070123;28;19952;-62
2023/06/21 12:46:04;;;;;;;;;;;;;;;;;;5069118;28;19957;-61
2023/06/21 12:48:29;;;;;;;;;;;;;;;;;;5069822;28;20003;-60
2023/06/21 12:50:55;;;;;;;;;;;;;;;;;;5065788;28;20406;-61
2023/06/21 12:53:21;;;;;;;;;;;;;;;;;;5069545;28;20003;-61
2023/06/21 12:55:47;;;;;;;;;;;;;;;;;;5066774;28;19960;-61
2023/06/21 12:58:13;;;;;;;;;;;;;;;;;;5060763;28;19917;-60
2023/06/21 13:00:39;;;;;;;;;;;;;;;;;;5066324;28;19965;-60
2023/06/21 13:03:05;;;;;;;;;;;;;;;;;;5068785;28;19952;-61
2023/06/21 13:05:31;;;;;;;;;;;;;;;;;;5070832;28;20338;-61
2023/06/21 13:07:57;;;;;;;;;;;;;;;;;;5068392;28;20011;-61
2023/06/21 13:10:23;;;;;;;;;;;;;;;;;;5070626;28;19923;-60
2023/06/21 13:12:48;;;;;;;;;;;;;;;;;;5069368;28;20275;-62
2023/06/21 13:15:14;;;;;;;;;;;;;;;;;;5067059;28;19919;-61
2023/06/21 13:17:40;;;;;;;;;;;;;;;;;;5041226;28;19925;-62
2023/06/21 13:20:06;;;;;;;;;;;;;;;;;;5039618;28;19952;-61
2023/06/21 13:22:32;;;;;;;;;;;;;;;;;;5040855;28;19956;-59
2023/06/21 13:24:58;;;;;;;;;;;;;;;;;;5036007;28;19985;-61
2023/06/21 13:27:24;;;;;;;;;;;;;;;;;;5052397;28;19921;-61
2023/06/21 13:29:50;;;;;;;;;;;;;;;;;;5053801;28;19948;-61
2023/06/21 13:32:16;;;;;;;;;;;;;;;;;;5055305;28;19999;-61
2023/06/21 13:34:41;;;;;;;;;;;;;;;;;;5042955;28;19917;-61
2023/06/21 13:37:07;;;;;;;;;;;;;;;;;;5049877;28;20323;-60
2023/06/21 13:39:34;;;;;;;;;;;;;;;;;;5044569;28;19983;-61
2023/06/21 13:42:00;;;;;;;;;;;;;;;;;;5040076;28;19919;-61
2023/06/21 13:44:26;;;;;;;;;;;;;;;;;;5045918;28;20004;-61
2023/06/21 13:46:52;;;;;;;;;;;;;;;;;;5045952;28;20063;-61
2023/06/21 13:49:18;;;;;;;;;;;;;;;;;;5046675;28;20399;-61
2023/06/21 13:51:44;;;;;;;;;;;;;;;;;;5039803;28;19917;-62
2023/06/21 13:54:10;;;;;;;;;;;;;;;;;;5049363;28;20384;-62
2023/06/21 13:56:36;;;;;;;;;;;;;;;;;;5040779;28;20047;-61
2023/06/21 13:59:02;;;;;;;;;;;;;;;;;;5045994;28;19955;-60
2023/06/21 14:01:28;;;;;;;;;;;;;;;;;;5049414;28;19913;-61
2023/06/21 14:03:54;;;;;;;;;;;;;;;;;;5052263;28;19913;-60
2023/06/21 14:06:20;;;;;;;;;;;;;;;;;;5054229;28;19956;-61
2023/06/21 14:08:46;;;;;;;;;;;;;;;;;;5051708;28;19920;-61
2023/06/21 14:11:12;;;;;;;;;;;;;;;;;;5053596;28;19952;-61
2023/06/21 14:13:38;;;;;;;;;;;;;;;;;;5047188;28;19948;-61
2023/06/21 14:16:04;;;;;;;;;;;;;;;;;;5049901;28;20349;-61
2023/06/21 14:18:30;;;;;;;;;;;;;;;;;;5059091;28;19916;-61
2023/06/21 14:20:56;;;;;;;;;;;;;;;;;;5062645;28;19917;-61
2023/06/21 14:23:23;;;;;;;;;;;;;;;;;;5066080;28;19951;-61
2023/06/21 14:25:48;;;;;;;;;;;;;;;;;;5069519;28;19955;-60
2023/06/21 14:28:14;;;;;;;;;;;;;;;;;;5065092;28;19948;-60
2023/06/21 14:30:40;;;;;;;;;;;;;;;;;;5064803;28;19935;-60
2023/06/21 14:33:06;;;;;;;;;;;;;;;;;;5068785;28;20424;-60
2023/06/21 14:35:32;;;;;;;;;;;;;;;;;;5062656;28;19923;-60
2023/06/21 14:37:59;;;;;;;;;;;;;;;;;;5068869;28;20004;-61
2023/06/21 14:40:25;;;;;;;;;;;;;;;;;;5066463;28;20339;-61
2023/06/21 14:42:51;;;;;;;;;;;;;;;;;;5066288;28;20011;-60
2023/06/21 14:45:17;;;;;;;;;;;;;;;;;;5063582;28;19919;-61
2023/06/21 14:47:44;;;;;;;;;;;;;;;;;;5057754;28;20304;-60
2023/06/21 14:50:10;;;;;;;;;;;;;;;;;;5062925;28;20017;-60
2023/06/21 14:52:36;;;;;;;;;;;;;;;;;;5067833;28;19978;-60
2023/06/21 14:55:02;;;;;;;;;;;;;;;;;;5066270;28;19974;-60
2023/06/21 14:57:28;;;;;;;;;;;;;;;;;;5062852;28;19967;-60
2023/06/21 14:59:54;;;;;;;;;;;;;;;;;;5063702;28;19947;-60
2023/06/21 15:02:20;;;;;;;;;;;;;;;;;;5065590;28;19919;-60
2023/06/21 15:04:45;;;;;;;;;;;;;;;;;;5066685;28;19951;-60
2023/06/21 15:07:15;;;;;;;;;;;;;;;;;;5060642;28;20029;-60
2023/06/21 15:09:41;;;;;;;;;;;;;;;;;;5057951;28;20429;-60
2023/06/21 15:12:07;;;;;;;;;;;;;;;;;;4152169;28;10000984;-60
2023/06/21 15:14:33;;;;;;;;;;;;;;;;;;5005031;28;19960;-60
2023/06/21 15:16:59;;;;;;;;;;;;;;;;;;4034232;28;10000264;-60
2023/06/21 15:19:25;;;;;;;;;;;;;;;;;;5007777;28;19928;-60
2023/06/21 15:21:51;;;;;;;;;;;;;;;;;;5008906;28;19944;-60
2023/06/21 15:24:17;;;;;;;;;;;;;;;;;;5010406;28;20357;-60
2023/06/21 15:26:43;;;;;;;;;;;;;;;;;;5012213;28;19971;-61
2023/06/21 15:29:09;;;;;;;;;;;;;;;;;;5014653;28;19917;-61
2023/06/21 15:31:35;;;;;;;;;;;;;;;;;;5011946;28;19929;-62
2023/06/21 15:34:01;;;;;;;;;;;;;;;;;;5006918;28;19922;-62
2023/06/21 15:36:27;;;;;;;;;;;;;;;;;;5001321;28;19925;-62
2023/06/21 15:38:53;;;;;;;;;;;;;;;;;;5001073;28;20367;-62
2023/06/21 15:41:19;;;;;;;;;;;;;;;;;;5009237;28;19927;-62
2023/06/21 15:43:45;;;;;;;;;;;;;;;;;;5011157;28;19925;-62
2023/06/21 15:46:15;;;;;;;;;;;;;;;;;;5008320;28;20382;-62
2023/06/21 15:48:41;;;;;;;;;;;;;;;;;;5008094;28;19920;-62
2023/06/21 15:51:07;;;;;;;;;;;;;;;;;;5016542;28;19921;-62
2023/06/21 15:53:33;;;;;;;;;;;;;;;;;;4997432;28;20040;-62
2023/06/21 15:55:59;;;;;;;;;;;;;;;;;;5011263;28;20293;-62
2023/06/21 15:58:25;;;;;;;;;;;;;;;;;;5012941;28;19909;-62
2023/06/21 16:00:51;;;;;;;;;;;;;;;;;;5008439;28;19976;-62
2023/06/21 16:03:17;;;;;;;;;;;;;;;;;;5008450;28;19960;-61
2023/06/21 16:05:42;;;;;;;;;;;;;;;;;;5004629;28;20611;-62
2023/06/21 16:08:10;;;;;;;;;;;;;;;;;;5012871;28;19917;-62
2023/06/21 16:10:36;;;;;;;;;;;;;;;;;;5000118;28;20833;-62
2023/06/21 16:13:03;;;;;;;;;;;;;;;;;;5016176;28;19918;-61
2023/06/21 16:15:29;;;;;;;;;;;;;;;;;;5007590;28;19920;-62
2023/06/21 16:17:55;;;;;;;;;;;;;;;;;;5006891;28;19969;-62
2023/06/21 16:20:21;;;;;;;;;;;;;;;;;;5001736;28;20356;-62
2023/06/21 16:22:46;;;;;;;;;;;;;;;;;;5005400;28;19957;-62
2023/06/21 16:25:12;;;;;;;;;;;;;;;;;;4996752;28;19961;-62
2023/06/21 16:27:38;;;;;;;;;;;;;;;;;;5001320;28;19965;-61
2023/06/21 16:30:05;;;;;;;;;;;;;;;;;;5010804;28;19976;-62
2023/06/21 16:32:30;;;;;;;;;;;;;;;;;;5005750;28;19914;-62
2023/06/21 16:34:56;;;;;;;;;;;;;;;;;;5011390;28;19964;-62
2023/06/21 16:37:22;;;;;;;;;;;;;;;;;;5000230;28;19937;-61